createdAt,value
2022-10-13T00:00:48.206Z,22.00
2022-10-13T00:03:15.622Z,21.48
2022-10-13T00:05:43.966Z,17.15
2022-10-13T00:10:39.071Z,19.38
2022-10-13T00:15:33.036Z,19.45
2022-10-13T00:17:59.626Z,20.63
2022-10-13T00:20:26.214Z,23.80
2022-10-13T00:22:52.771Z,18.73
2022-10-13T00:25:19.325Z,23.27
2022-10-13T00:27:45.771Z,17.40
2022-10-13T00:30:12.444Z,20.50
2022-10-13T00:32:39.079Z,20.10
2022-10-13T00:35:05.690Z,19.65
2022-10-13T00:37:32.185Z,21.42
2022-10-13T00:39:58.760Z,23.52
2022-10-13T00:42:26.385Z,21.10
2022-10-13T00:45:15.276Z,21.67
2022-10-13T00:47:44.885Z,17.27
2022-10-13T00:50:16.775Z,19.42
2022-10-13T00:52:44.038Z,22.50
2022-10-13T00:55:13.747Z,17.02
2022-10-13T00:57:43.004Z,18.30
2022-10-13T01:00:10.265Z,21.55
2022-10-13T01:02:38.202Z,19.85
2022-10-13T01:05:06.650Z,21.52
2022-10-13T01:10:02.361Z,18.92
2022-10-13T01:12:58.314Z,21.30
2022-10-13T01:15:24.769Z,20.23
2022-10-13T01:17:54.336Z,19.70
2022-10-13T01:20:37.704Z,18.45
2022-10-13T01:23:22.361Z,20.17
2022-10-13T01:26:08.862Z,21.15
2022-10-13T01:28:50.547Z,16.88
2022-10-13T01:31:24.510Z,20.83
2022-10-13T01:34:26.081Z,20.52
2022-10-13T01:37:10.571Z,16.98
2022-10-13T01:39:42.629Z,16.77
2022-10-13T01:42:17.025Z,20.58
2022-10-13T01:44:50.930Z,20.08
2022-10-13T01:47:19.255Z,18.75
2022-10-13T01:52:17.225Z,19.98
2022-10-13T01:54:48.653Z,20.42
2022-10-13T01:57:34.721Z,16.08
2022-10-13T02:00:08.014Z,19.67
2022-10-13T02:02:41.797Z,19.10
2022-10-13T02:05:17.010Z,19.52
2022-10-13T02:08:00.086Z,18.75
2022-10-13T02:10:34.855Z,18.30
2022-10-13T02:13:04.618Z,18.95
2022-10-13T02:15:37.297Z,24.17
2022-10-13T02:18:04.890Z,19.75
2022-10-13T02:20:36.035Z,20.40
2022-10-13T02:23:10.991Z,18.77
2022-10-13T02:25:37.823Z,18.48
2022-10-13T02:28:05.445Z,23.30
2022-10-13T02:30:33.224Z,19.13
2022-10-13T02:33:00.987Z,19.65
2022-10-13T02:35:27.939Z,18.55
2022-10-13T02:37:54.371Z,16.30
2022-10-13T02:40:20.872Z,17.50
2022-10-13T02:42:47.344Z,18.63
2022-10-13T02:45:13.854Z,19.88
2022-10-13T02:47:40.726Z,20.52
2022-10-13T02:50:08.139Z,21.98
2022-10-13T02:52:34.855Z,19.92
2022-10-13T02:55:01.855Z,22.05
2022-10-13T02:57:28.498Z,20.45
2022-10-13T02:59:54.968Z,23.63
2022-10-13T03:02:21.987Z,23.60
2022-10-13T03:04:49.149Z,19.35
2022-10-13T03:07:15.872Z,22.67
2022-10-13T03:09:42.336Z,18.73
2022-10-13T03:12:08.872Z,19.73
2022-10-13T03:14:35.541Z,19.30
2022-10-13T03:17:02.444Z,22.15
2022-10-13T03:19:29.033Z,20.00
2022-10-13T03:21:55.567Z,20.65
2022-10-13T03:24:22.133Z,19.92
2022-10-13T03:26:48.607Z,17.23
2022-10-13T03:29:16.591Z,20.77
2022-10-13T03:31:43.210Z,19.48
2022-10-13T03:34:11.078Z,17.50
2022-10-13T03:36:37.547Z,20.15
2022-10-13T03:39:04.097Z,18.40
2022-10-13T03:41:30.545Z,18.15
2022-10-13T03:43:57.032Z,20.23
2022-10-13T03:46:26.393Z,18.00
2022-10-13T03:48:52.960Z,17.20
2022-10-13T03:51:21.067Z,16.58
2022-10-13T03:53:48.468Z,22.17
2022-10-13T03:56:18.593Z,21.70
2022-10-13T03:58:45.424Z,21.23
2022-10-13T04:01:14.332Z,24.33
2022-10-13T04:03:40.784Z,19.92
2022-10-13T04:06:07.421Z,20.98
2022-10-13T04:08:34.242Z,21.95
2022-10-13T04:11:12.744Z,21.90
2022-10-13T04:13:39.725Z,20.42
2022-10-13T04:16:08.794Z,21.98
2022-10-13T04:18:35.540Z,18.70
2022-10-13T04:21:02.027Z,22.30
2022-10-13T04:23:28.508Z,17.70
2022-10-13T04:25:56.453Z,22.15
2022-10-13T04:28:22.989Z,20.77
2022-10-13T04:30:49.779Z,19.90
2022-10-13T04:33:16.629Z,25.92
2022-10-13T04:35:43.128Z,20.92
2022-10-13T04:38:09.552Z,23.02
2022-10-13T04:40:36.216Z,19.83
2022-10-13T04:43:03.093Z,22.73
2022-10-13T04:45:29.796Z,22.40
2022-10-13T04:47:56.262Z,24.00
2022-10-13T04:50:22.792Z,21.38
2022-10-13T04:52:49.336Z,18.85
2022-10-13T04:55:15.867Z,21.95
2022-10-13T04:57:42.387Z,22.35
2022-10-13T05:00:09.513Z,17.90
2022-10-13T05:02:36.850Z,22.02
2022-10-13T05:05:04.351Z,19.88
2022-10-13T05:07:31.920Z,23.25
2022-10-13T05:09:58.457Z,19.95
2022-10-13T05:12:25.065Z,22.05
2022-10-13T05:14:51.498Z,19.60
2022-10-13T05:17:17.960Z,24.25
2022-10-13T05:19:44.474Z,18.52
2022-10-13T05:22:11.002Z,22.25
2022-10-13T05:24:37.645Z,22.17
2022-10-13T05:27:12.420Z,23.52
2022-10-13T05:29:39.708Z,20.83
2022-10-13T05:32:06.837Z,23.65
2022-10-13T05:34:33.692Z,21.33
2022-10-13T05:37:00.620Z,20.10
2022-10-13T05:39:27.410Z,22.65
2022-10-13T05:41:54.070Z,24.05
2022-10-13T05:44:21.402Z,20.70
2022-10-13T05:46:47.820Z,21.05
2022-10-13T05:49:14.261Z,19.58
2022-10-13T05:51:53.523Z,19.58
2022-10-13T05:54:26.914Z,21.55
2022-10-13T05:57:16.524Z,25.20
2022-10-13T06:00:02.919Z,19.70
2022-10-13T06:02:37.791Z,22.13
2022-10-13T06:05:06.834Z,22.63
2022-10-13T06:07:33.434Z,23.65
2022-10-13T06:10:01.178Z,23.40
2022-10-13T06:12:27.626Z,22.90
2022-10-13T06:14:54.369Z,23.88
2022-10-13T06:17:20.817Z,22.35
2022-10-13T06:19:47.247Z,22.67
2022-10-13T06:22:13.806Z,23.10
2022-10-13T06:24:40.338Z,22.42
2022-10-13T06:27:06.794Z,22.65
2022-10-13T06:29:33.622Z,20.23
2022-10-13T06:32:00.080Z,18.70
2022-10-13T06:34:26.525Z,20.05
2022-10-13T06:36:53.029Z,26.17
2022-10-13T06:39:19.566Z,23.38
2022-10-13T06:41:46.024Z,23.55
2022-10-13T06:44:12.526Z,22.52
2022-10-13T06:46:38.994Z,21.42
2022-10-13T06:49:05.539Z,26.27
2022-10-13T06:51:32.312Z,22.70
2022-10-13T06:53:58.790Z,22.35
2022-10-13T06:56:25.397Z,24.15
2022-10-13T06:58:51.836Z,26.52
2022-10-13T07:01:18.390Z,24.50
2022-10-13T07:03:47.868Z,20.05
2022-10-13T07:06:14.383Z,23.60
2022-10-13T07:08:40.922Z,23.83
2022-10-13T07:11:16.331Z,22.00
2022-10-13T07:13:46.508Z,27.08
2022-10-13T07:16:14.775Z,21.75
2022-10-13T07:18:41.675Z,22.77
2022-10-13T07:21:08.197Z,22.77
2022-10-13T07:23:34.747Z,27.90
2022-10-13T07:26:01.863Z,22.38
2022-10-13T07:28:29.146Z,26.45
2022-10-13T07:30:55.623Z,23.60
2022-10-13T07:33:22.453Z,22.35
2022-10-13T07:35:48.922Z,24.67
2022-10-13T07:38:15.409Z,25.55
2022-10-13T07:40:41.923Z,24.55
2022-10-13T07:43:08.482Z,23.35
2022-10-13T07:45:34.959Z,24.42
2022-10-13T07:48:01.523Z,24.90
2022-10-13T07:50:28.067Z,25.23
2022-10-13T07:52:54.628Z,23.45
2022-10-13T07:55:21.104Z,26.90
2022-10-13T07:57:47.556Z,26.15
2022-10-13T08:00:14.328Z,26.90
2022-10-13T08:02:41.537Z,27.48
2022-10-13T08:05:08.358Z,26.05
2022-10-13T08:07:35.522Z,26.88
2022-10-13T08:10:02.282Z,25.42
2022-10-13T08:12:28.733Z,26.92
2022-10-13T08:14:55.236Z,24.02
2022-10-13T08:17:22.029Z,29.02
2022-10-13T08:19:51.051Z,26.52
2022-10-13T08:22:17.928Z,27.90
2022-10-13T08:24:44.463Z,25.17
2022-10-13T08:27:21.994Z,26.65
2022-10-13T08:29:48.728Z,26.58
2022-10-13T08:32:15.312Z,30.42
2022-10-13T08:34:41.979Z,23.95
2022-10-13T08:37:19.266Z,25.60
2022-10-13T08:39:45.792Z,23.23
2022-10-13T08:42:18.887Z,27.20
2022-10-13T08:45:36.410Z,26.63
2022-10-13T08:47:48.869Z,29.17
2022-10-13T08:50:19.530Z,26.55
2022-10-13T08:52:57.266Z,27.40
2022-10-13T08:55:33.229Z,26.20
2022-10-13T08:58:01.887Z,26.20
2022-10-13T09:00:29.788Z,27.85
2022-10-13T09:03:16.072Z,24.80
2022-10-13T09:05:49.583Z,30.02
2022-10-13T09:08:20.556Z,27.52
2022-10-13T09:10:49.004Z,23.08
2022-10-13T09:13:15.531Z,26.15
2022-10-13T09:15:50.588Z,24.05
2022-10-13T09:18:17.414Z,24.45
2022-10-13T09:20:43.877Z,24.50
2022-10-13T09:23:22.439Z,23.90
2022-10-13T09:25:52.176Z,25.58
2022-10-13T09:28:24.441Z,23.55
2022-10-13T09:31:10.371Z,24.77
2022-10-13T09:33:40.358Z,20.10
2022-10-13T09:36:12.232Z,20.08
2022-10-13T09:38:41.007Z,19.75
2022-10-13T09:41:10.500Z,21.35
2022-10-13T09:43:47.500Z,21.20
2022-10-13T09:46:26.683Z,22.05
2022-10-13T09:48:56.699Z,20.75
2022-10-13T09:51:49.389Z,17.42
2022-10-13T09:54:26.647Z,23.42
2022-10-13T09:57:02.603Z,21.30
2022-10-13T09:59:35.740Z,22.10
2022-10-13T10:02:30.769Z,18.50
2022-10-13T10:05:05.184Z,18.73
2022-10-13T10:10:18.525Z,18.70
2022-10-13T10:12:45.352Z,18.45
2022-10-13T10:15:26.159Z,16.25
2022-10-13T10:18:00.857Z,17.17
2022-10-13T10:20:39.514Z,17.92
2022-10-13T10:23:12.667Z,17.85
2022-10-13T10:26:11.263Z,18.05
2022-10-13T10:31:31.917Z,18.60
2022-10-13T10:34:20.416Z,17.17
2022-10-13T10:37:01.072Z,19.85
2022-10-13T10:39:38.576Z,22.27
2022-10-13T10:42:52.118Z,15.82
2022-10-13T10:45:24.943Z,15.80
2022-10-13T10:47:59.347Z,18.75
2022-10-13T10:50:26.664Z,17.58
2022-10-13T10:53:07.242Z,16.67
2022-10-13T10:56:04.082Z,18.75
2022-10-13T10:58:49.488Z,16.13
2022-10-13T11:01:34.387Z,16.42
2022-10-13T11:04:32.796Z,15.43
2022-10-13T11:06:59.610Z,18.30
2022-10-13T11:09:40.991Z,18.90
2022-10-13T11:12:19.834Z,15.55
2022-10-13T11:14:52.443Z,18.60
2022-10-13T11:17:29.768Z,16.83
2022-10-13T11:19:58.085Z,15.38
2022-10-13T11:22:31.113Z,19.35
2022-10-13T11:24:59.746Z,18.05
2022-10-13T11:27:33.443Z,18.20
2022-10-13T11:30:01.074Z,22.20
2022-10-13T11:32:27.554Z,22.67
2022-10-13T11:35:06.251Z,21.05
2022-10-13T11:38:05.965Z,22.75
2022-10-13T11:41:05.190Z,21.00
2022-10-13T11:46:21.939Z,20.88
2022-10-13T11:49:17.545Z,23.85
2022-10-13T11:52:06.583Z,23.17
2022-10-13T11:54:40.068Z,27.25
2022-10-13T11:57:32.954Z,26.45
2022-10-13T11:59:59.498Z,21.33
2022-10-13T12:02:28.005Z,24.33
2022-10-13T12:05:20.937Z,26.50
2022-10-13T12:07:49.353Z,23.88
2022-10-13T12:10:37.069Z,24.65
2022-10-13T12:13:05.222Z,20.90
2022-10-13T12:18:18.766Z,21.23
2022-10-13T12:20:53.175Z,21.23
2022-10-13T12:23:19.881Z,21.15
2022-10-13T12:25:48.980Z,20.63
2022-10-13T12:28:19.657Z,19.52
2022-10-13T12:30:54.890Z,22.63
2022-10-13T12:33:29.655Z,20.30
2022-10-13T12:35:56.537Z,20.45
2022-10-13T12:38:23.727Z,22.17
2022-10-13T12:40:53.504Z,20.05
2022-10-13T12:43:25.430Z,20.98
2022-10-13T12:45:52.158Z,18.85
2022-10-13T12:48:34.300Z,20.05
2022-10-13T12:51:17.048Z,19.35
2022-10-13T12:53:45.661Z,20.67
2022-10-13T12:56:28.365Z,20.77
2022-10-13T12:58:55.483Z,19.63
2022-10-13T13:01:35.776Z,20.20
2022-10-13T13:07:15.719Z,18.52
2022-10-13T13:09:42.252Z,20.67
2022-10-13T13:12:08.672Z,20.45
2022-10-13T13:14:48.491Z,20.70
2022-10-13T13:17:38.912Z,20.65
2022-10-13T13:20:31.245Z,21.50
2022-10-13T13:22:58.287Z,22.77
2022-10-13T13:25:25.802Z,21.83
2022-10-13T13:27:53.139Z,23.05
2022-10-13T13:30:22.243Z,25.85
2022-10-13T13:32:48.923Z,23.02
2022-10-13T13:35:15.675Z,30.55
2022-10-13T13:37:45.065Z,20.73
2022-10-13T13:40:19.655Z,22.92
2022-10-13T13:42:46.230Z,22.15
2022-10-13T13:45:17.417Z,23.08
2022-10-13T13:47:45.428Z,24.35
2022-10-13T13:50:23.285Z,22.55
2022-10-13T13:52:49.934Z,22.58
2022-10-13T13:55:16.899Z,23.98
2022-10-13T13:57:44.263Z,20.27
2022-10-13T14:00:13.322Z,24.08
2022-10-13T14:02:40.406Z,21.63
2022-10-13T14:05:07.659Z,22.70
2022-10-13T14:07:34.305Z,22.80
2022-10-13T14:10:02.143Z,22.42
2022-10-13T14:12:33.097Z,23.05
2022-10-13T14:14:59.836Z,21.35
2022-10-13T14:17:26.892Z,21.00
2022-10-13T14:19:53.436Z,23.88
2022-10-13T14:22:20.291Z,22.10
2022-10-13T14:24:47.137Z,26.02
2022-10-13T14:27:13.993Z,25.20
2022-10-13T14:29:40.654Z,22.65
2022-10-13T14:32:07.235Z,21.23
2022-10-13T14:34:33.732Z,20.40
2022-10-13T14:37:00.200Z,23.88
2022-10-13T14:39:26.912Z,23.83
2022-10-13T14:41:53.484Z,22.83
2022-10-13T14:44:19.980Z,24.02
2022-10-13T14:46:46.521Z,23.13
2022-10-13T14:49:13.027Z,20.60
2022-10-13T14:51:39.621Z,19.65
2022-10-13T14:54:06.969Z,21.67
2022-10-13T14:56:34.236Z,22.55
2022-10-13T14:59:02.868Z,21.98
2022-10-13T15:01:30.051Z,21.23
2022-10-13T15:03:56.836Z,23.35
2022-10-13T15:06:25.323Z,22.40
2022-10-13T15:08:52.453Z,20.70
2022-10-13T15:11:20.821Z,21.17
2022-10-13T15:13:47.778Z,19.88
2022-10-13T15:16:33.670Z,22.02
2022-10-13T15:19:00.344Z,23.70
2022-10-13T15:21:26.989Z,23.70
2022-10-13T15:23:53.489Z,21.58
2022-10-13T15:26:20.602Z,23.98
2022-10-13T15:28:49.769Z,25.15
2022-10-13T15:31:17.940Z,20.08
2022-10-13T15:36:22.132Z,22.50
2022-10-13T15:38:48.738Z,25.38
2022-10-13T15:41:16.123Z,21.40
2022-10-13T15:43:42.685Z,24.00
2022-10-13T15:46:13.563Z,24.75
2022-10-13T15:48:40.219Z,21.45
2022-10-13T15:51:14.563Z,22.92
2022-10-13T15:56:08.398Z,23.30
2022-10-13T15:58:35.558Z,25.48
2022-10-13T16:01:06.757Z,21.35
2022-10-13T16:03:33.302Z,21.88
2022-10-13T16:06:04.352Z,25.05
2022-10-13T16:08:31.009Z,26.20
2022-10-13T16:10:57.543Z,24.25
2022-10-13T16:13:24.004Z,27.95
2022-10-13T16:15:58.104Z,21.80
2022-10-13T16:18:29.067Z,22.55
2022-10-13T16:20:55.604Z,26.33
2022-10-13T16:23:22.073Z,24.02
2022-10-13T16:25:48.531Z,21.67
2022-10-13T16:28:15.238Z,24.95
2022-10-13T16:30:42.548Z,23.40
2022-10-13T16:33:09.008Z,24.70
2022-10-13T16:35:35.472Z,22.17
2022-10-13T16:38:03.820Z,26.67
2022-10-13T16:40:30.668Z,24.55
2022-10-13T16:42:57.117Z,26.00
2022-10-13T16:45:41.128Z,21.90
2022-10-13T16:50:38.015Z,23.27
2022-10-13T16:53:04.475Z,25.70
2022-10-13T16:55:31.015Z,24.70
2022-10-13T16:57:57.422Z,25.92
2022-10-13T17:00:24.005Z,25.60
2022-10-13T17:02:50.567Z,27.35
2022-10-13T17:05:17.054Z,26.98
2022-10-13T17:07:43.578Z,26.77
2022-10-13T17:10:10.324Z,27.25
2022-10-13T17:12:36.879Z,25.80
2022-10-13T17:15:03.575Z,25.90
2022-10-13T17:17:30.072Z,28.60
2022-10-13T17:19:56.598Z,27.67
2022-10-13T17:22:23.307Z,28.40
2022-10-13T17:24:49.858Z,28.55
2022-10-13T17:27:16.640Z,27.42
2022-10-13T17:29:43.187Z,31.38
2022-10-13T17:32:09.971Z,32.05
2022-10-13T17:34:36.640Z,27.33
2022-10-13T17:37:04.219Z,31.77
2022-10-13T17:39:30.988Z,33.10
2022-10-13T17:41:57.473Z,31.40
2022-10-13T17:44:24.012Z,36.28
2022-10-13T17:46:50.595Z,31.35
2022-10-13T17:49:17.644Z,30.27
2022-10-13T17:51:44.637Z,30.10
2022-10-13T17:54:15.937Z,28.88
2022-10-13T17:56:43.531Z,30.95
2022-10-13T17:59:10.226Z,30.55
2022-10-13T18:01:36.955Z,29.67
2022-10-13T18:04:11.177Z,29.80
2022-10-13T18:09:10.917Z,28.73
2022-10-13T18:11:38.233Z,28.95
2022-10-13T18:14:05.745Z,30.35
2022-10-13T18:16:32.547Z,27.38
2022-10-13T18:18:59.006Z,30.42
2022-10-13T18:21:29.239Z,26.50
2022-10-13T18:23:57.882Z,29.60
2022-10-13T18:26:26.603Z,40.97
2022-10-13T18:28:53.841Z,30.85
2022-10-13T18:31:27.640Z,30.63
2022-10-13T18:33:56.495Z,26.63
2022-10-13T18:36:26.413Z,34.70
2022-10-13T18:38:53.920Z,22.70
2022-10-13T18:41:23.167Z,24.35
2022-10-13T18:43:50.289Z,23.73
2022-10-13T18:46:17.383Z,20.13
2022-10-13T18:48:43.839Z,21.58
2022-10-13T18:51:15.456Z,20.23
2022-10-13T18:53:44.376Z,21.48
2022-10-13T18:56:17.121Z,22.58
2022-10-13T18:58:43.734Z,21.88
2022-10-13T19:01:13.415Z,18.88
2022-10-13T19:03:41.201Z,23.60
2022-10-13T19:06:09.814Z,19.20
2022-10-13T19:08:36.623Z,17.88
2022-10-13T19:11:21.909Z,19.25
2022-10-13T19:13:49.856Z,19.83
2022-10-13T19:16:18.921Z,17.85
2022-10-13T19:18:46.339Z,18.67
2022-10-13T19:21:13.687Z,19.67
2022-10-13T19:23:40.577Z,23.77
2022-10-13T19:26:15.069Z,112.32
2022-10-13T19:28:42.976Z,56.83
2022-10-13T19:31:10.401Z,43.75
2022-10-13T19:33:41.991Z,21.30
2022-10-13T19:36:12.391Z,17.55
2022-10-13T19:38:38.891Z,18.92
2022-10-13T19:41:07.183Z,16.92
2022-10-13T19:43:34.670Z,17.67
2022-10-13T19:46:01.258Z,18.58
2022-10-13T19:48:27.817Z,19.58
2022-10-13T19:50:54.449Z,24.90
2022-10-13T19:53:20.922Z,28.63
2022-10-13T19:55:48.388Z,21.17
2022-10-13T19:58:16.245Z,30.67
2022-10-13T20:00:44.041Z,21.73
2022-10-13T20:03:11.481Z,21.17
2022-10-13T20:05:39.102Z,21.92
2022-10-13T20:08:05.902Z,21.38
2022-10-13T20:10:32.827Z,21.85
2022-10-13T20:13:00.156Z,21.23
2022-10-13T20:15:26.673Z,20.40
2022-10-13T20:17:53.141Z,21.15
2022-10-13T20:20:22.429Z,20.83
2022-10-13T20:22:49.157Z,22.23
2022-10-13T20:25:19.574Z,47.70
2022-10-13T20:27:46.814Z,51.50
2022-10-13T20:30:13.964Z,31.80
2022-10-13T20:32:40.992Z,27.10
2022-10-13T20:35:07.768Z,24.95
2022-10-13T20:37:34.726Z,25.38
2022-10-13T20:40:01.207Z,27.73
2022-10-13T20:42:27.908Z,24.55
2022-10-13T20:44:54.415Z,23.40
2022-10-13T20:47:21.093Z,23.13
2022-10-13T20:49:47.827Z,20.27
2022-10-13T20:52:14.300Z,21.85
2022-10-13T20:54:40.761Z,22.45
2022-10-13T20:57:07.506Z,22.38
2022-10-13T20:59:34.141Z,21.00
2022-10-13T21:02:00.792Z,22.35
2022-10-13T21:04:27.358Z,23.20
2022-10-13T21:06:53.917Z,22.50
2022-10-13T21:09:20.867Z,25.05
2022-10-13T21:11:47.307Z,23.50
2022-10-13T21:14:13.863Z,25.15
2022-10-13T21:16:40.378Z,23.10
2022-10-13T21:19:07.484Z,24.20
2022-10-13T21:21:35.932Z,26.98
2022-10-13T21:24:05.430Z,28.15
2022-10-13T21:26:33.448Z,35.45
2022-10-13T21:29:01.128Z,32.30
2022-10-13T21:31:28.663Z,35.90
2022-10-13T21:33:55.934Z,37.03
2022-10-13T21:36:25.547Z,36.38
2022-10-13T21:38:55.179Z,37.08
2022-10-13T21:41:22.159Z,37.90
2022-10-13T21:43:49.596Z,42.85
2022-10-13T21:46:16.005Z,52.92
2022-10-13T21:48:44.039Z,44.47
2022-10-13T21:51:14.943Z,67.65
2022-10-13T21:53:41.676Z,71.00
2022-10-13T21:56:11.319Z,75.03
2022-10-13T21:58:38.220Z,45.50
2022-10-13T22:01:06.095Z,40.55
2022-10-13T22:03:33.580Z,42.03
2022-10-13T22:06:16.034Z,86.10
2022-10-13T22:08:46.218Z,75.15
2022-10-13T22:11:13.386Z,42.00
2022-10-13T22:13:40.366Z,81.10
2022-10-13T22:16:11.876Z,85.18
2022-10-13T22:18:38.385Z,45.17
2022-10-13T22:21:07.324Z,37.38
2022-10-13T22:23:34.313Z,61.28
2022-10-13T22:26:00.807Z,44.33
2022-10-13T22:28:27.418Z,38.22
2022-10-13T22:30:53.935Z,78.22
2022-10-13T22:33:20.629Z,57.42
2022-10-13T22:35:47.141Z,45.50
2022-10-13T22:38:14.713Z,40.47
2022-10-13T22:40:41.495Z,67.85
2022-10-13T22:43:08.591Z,79.78
2022-10-13T22:45:35.245Z,44.42
2022-10-13T22:48:02.216Z,75.47
2022-10-13T22:50:28.982Z,53.80
2022-10-13T22:52:55.472Z,42.42
2022-10-13T22:55:22.021Z,56.30
2022-10-13T22:57:48.456Z,38.70
2022-10-13T23:00:16.119Z,53.05
2022-10-13T23:02:42.632Z,35.35
2022-10-13T23:05:09.271Z,54.13
2022-10-13T23:07:35.776Z,47.90
2022-10-13T23:10:02.245Z,76.13
2022-10-13T23:12:28.692Z,59.83
2022-10-13T23:14:55.166Z,72.10
2022-10-13T23:17:21.887Z,47.17
2022-10-13T23:19:48.556Z,65.35
2022-10-13T23:22:15.006Z,54.38
2022-10-13T23:24:41.525Z,116.40
2022-10-13T23:27:07.946Z,61.72
2022-10-13T23:29:34.384Z,90.80
2022-10-13T23:32:00.764Z,75.10
2022-10-13T23:34:29.159Z,114.10
2022-10-13T23:36:55.780Z,84.75
2022-10-13T23:39:22.352Z,83.10
2022-10-13T23:41:49.137Z,73.07
2022-10-13T23:44:15.609Z,71.65
2022-10-13T23:46:42.163Z,44.70
2022-10-13T23:49:11.719Z,32.80
2022-10-13T23:51:38.210Z,34.88
2022-10-13T23:54:04.702Z,37.83
2022-10-13T23:56:31.192Z,47.95
2022-10-13T23:58:57.611Z,51.83
